Stony Brook, New York
Current Conditions -  °F | °C
As of 3:56 PM on Friday 19 Dec 2014 (Local Time) from KISP Reporting Station
Broken Clouds Broken Clouds  
Wind Chill: 29°   Ceiling: 4000
Heat Index: 37°   Visibility: 10mi
Dew Point: 22°   Wind: 12mph
Humidity: 54%   Direction: 320°NW
Pressure: 30.02"   Gusts: NA
Location:  40.92°N, 73.13°W
Report Text: KISP 192056Z 32010KT 10SM BKN040 BKN065 BKN100 03/M06 A3002 RMK AO2 SLP166 T00281056 53012
Loading
Personal Weather Stations






























Interactive Weather Map New forecast layout! Learn more

10-Day Weather Forecast

Advertisements
Track Severe Weather on mobile